Terminal Aerodrome Forecast
Issued by NWS

Home | Current Version | Previous Version | Text Only | Print | Product List | Glossary On
Versions: 1 2 3 4 5 6 7 8 9 10 11 12 13 14 15 16 17 18 19 20 21 22 23 24 25 26 27 28 29 30 31 32 33 34 35 36 37 38 39
000
FTUS45 KGJT 232335
TAFRIL
TAF
KRIL 232335Z 2400/2424 27009KT P6SM SKC
     FM240200 25010KT P6SM VCSH SCT060 OVC080
      TEMPO 2402/2404 -SHRA BKN060
     FM240400 28012G20KT P6SM VCSH OVC050
     FM241100 27012G20KT P6SM SCT050 BKN090
     FM241400 28009KT P6SM SCT070
     FM241900 28004KT P6SM SCT120=

USA.gov is the U.S. government's official web portal to all federal, state and local government web resources and services.